Arcadia, Illinois
Current Conditions -  °F | °C
As of 3:15 PM on Saturday 22 Nov 2014 (Local Time) from KIJX Reporting Station
Overcast Overcast  
Wind Chill: 15°   Ceiling: 2200
Heat Index: 15°   Visibility: 10mi
Dew Point:   Wind: 14mph
Humidity: 66%   Direction: 190°S
Pressure: 29.9"   Gusts: 18mph
Location:  39.7413°N, 90.2138°W
Report Text: KIJX 222115Z AUTO 19012G16KT 10SM OVC022 15/09 A2990 RMK AO2 T01530090
Loading
Personal Weather Stations






























Interactive Weather Map New forecast layout! Learn more

10-Day Weather Forecast

Advertisements
Track Severe Weather on mobile